Terminal Aerodrome Forecast
Issued by NWS

Home | Current Version | Previous Version | Text Only | Print | Product List | Glossary On
Versions: 1 2 3 4 5 6 7 8 9 10 11 12 13 14 15
000
FTAK31 PAJN 261100
TAFAKT
TAF
PAKT 261130Z 2612/2712 16008KT P6SM -RA SCT015 BKN025 OVC035
      TEMPO 2612/2615 5SM -RA BR SCT010 BKN015 OVC025
     FM261700 14010G18KT 5SM -RA BR SCT008 OVC015
     FM270300 15007KT P6SM -RA SCT015 OVC030
     FM271000 14004KT 4SM -RA BR BKN008 OVC015
      AMD LTD TO CLD VIS AND WIND TIL 261500=

USA.gov is the U.S. government's official web portal to all federal, state and local government web resources and services.